Time;durP1;ratioP1;P1;durP2;ratioP2;P2;SDS_P1;SDS_P2;PMS_P1;PMS_P2;Temp;Humidity;BMP_temperature;BMP_pressure;BME280_temperature;BME280_humidity;BME280_pressure;Samples;Min_cycle;Max_cycle;Signal;HPM_P1;HPM_P2
2022/07/25 00:02:18;;;;;;;6.53;5.95;;;27.80;50.30;29.20;100383.00;;;;5068739;28;20681;-41
2022/07/25 00:04:44;;;;;;;7.40;6.10;;;27.80;50.40;29.20;100382.00;;;;5067907;28;20186;-42
2022/07/25 00:07:10;;;;;;;6.35;5.85;;;27.80;50.10;29.20;100380.00;;;;5067971;28;20260;-42
2022/07/25 00:09:36;;;;;;;6.07;5.57;;;27.70;49.80;29.10;100383.00;;;;5068141;28;20558;-42
2022/07/25 00:12:02;;;;;;;5.72;5.32;;;27.80;50.80;29.20;100370.00;;;;5068032;28;20209;-41
2022/07/25 00:14:27;;;;;;;6.15;5.70;;;27.80;50.80;29.10;100368.00;;;;5068153;28;20205;-41
2022/07/25 00:16:53;;;;;;;6.50;5.90;;;27.70;50.60;28.90;100369.00;;;;5068427;28;20180;-41
2022/07/25 00:19:19;;;;;;;6.00;5.43;;;27.70;49.60;29.10;100360.00;;;;5073124;28;20197;-41
2022/07/25 00:21:44;;;;;;;6.13;5.57;;;27.70;49.20;29.00;100360.00;;;;5073706;28;20197;-41
2022/07/25 00:24:10;;;;;;;5.78;5.38;;;27.70;48.60;29.00;100358.00;;;;5072204;28;20170;-41
2022/07/25 00:26:36;;;;;;;6.50;5.90;;;27.70;48.50;29.00;100343.00;;;;5071238;28;20642;-41
2022/07/25 00:29:02;;;;;;;6.32;5.75;;;27.60;48.30;28.90;100336.00;;;;5071255;28;20206;-41
2022/07/25 00:31:27;;;;;;;6.55;6.05;;;27.60;48.20;28.90;100343.00;;;;5071147;28;20182;-40
2022/07/25 00:33:53;;;;;;;5.95;5.50;;;27.60;48.00;28.90;100335.00;;;;5070441;28;20574;-41
2022/07/25 00:36:19;;;;;;;6.43;5.90;;;27.60;48.00;28.90;100322.00;;;;5071341;28;20627;-39
2022/07/25 00:38:44;;;;;;;6.57;5.72;;;27.60;48.20;28.80;100322.00;;;;5071860;28;20239;-42
2022/07/25 00:41:10;;;;;;;6.20;5.70;;;27.50;47.90;28.80;100320.00;;;;5070858;28;20208;-42
2022/07/25 00:43:36;;;;;;;6.80;5.97;;;27.50;47.70;28.80;100319.00;;;;5071372;28;20173;-42
2022/07/25 00:46:02;;;;;;;6.10;5.60;;;27.50;48.00;28.80;100318.00;;;;5071311;28;20838;-42
2022/07/25 00:48:28;;;;;;;6.50;6.00;;;27.50;47.90;28.70;100311.00;;;;5070956;28;20186;-41
2022/07/25 00:50:54;;;;;;;6.63;6.03;;;27.50;48.10;28.70;100307.00;;;;5070914;28;20165;-41
2022/07/25 00:53:21;;;;;;;6.60;6.00;;;27.50;48.10;28.70;100296.00;;;;5070937;28;20173;-40
2022/07/25 00:55:47;;;;;;;6.55;5.95;;;27.50;48.10;28.80;100306.00;;;;5069685;28;20173;-42
2022/07/25 00:58:12;;;;;;;6.28;5.68;;;27.50;48.30;28.70;100309.00;;;;5070561;28;20169;-42
2022/07/25 01:00:38;;;;;;;6.13;5.53;;;27.50;48.70;28.70;100292.00;;;;5070805;28;20197;-41
2022/07/25 01:03:04;;;;;;;6.43;5.82;;;27.50;48.70;28.70;100310.00;;;;5071350;28;20665;-40
2022/07/25 01:05:30;;;;;;;6.22;5.60;;;27.50;50.10;28.70;100306.00;;;;5069277;28;20166;-40
2022/07/25 01:07:56;;;;;;;6.47;5.90;;;27.50;50.50;28.70;100311.00;;;;5069525;28;20669;-40
2022/07/25 01:10:22;;;;;;;6.00;5.50;;;27.50;50.50;28.70;100309.00;;;;5069798;28;20206;-40
2022/07/25 01:12:50;;;;;;;6.38;5.63;;;27.50;50.80;28.70;100311.00;;;;5070951;28;20541;-41
2022/07/25 01:15:20;;;;;;;6.20;5.70;;;27.50;51.30;28.70;100305.00;;;;5070852;28;20661;-42
2022/07/25 01:17:45;;;;;;;6.22;5.72;;;27.50;51.00;28.70;100304.00;;;;5070664;28;20611;-41
2022/07/25 01:20:22;;;;;;;5.85;5.45;;;27.50;51.20;28.70;100304.00;;;;5072971;28;20190;-41
2022/07/25 01:22:47;;;;;;;6.68;5.95;;;27.40;51.40;28.70;100303.00;;;;5073689;28;20173;-41
2022/07/25 01:25:13;;;;;;;6.20;5.70;;;27.40;51.40;28.70;100304.00;;;;5071085;28;20181;-40
2022/07/25 01:27:40;;;;;;;5.90;5.40;;;27.50;51.80;28.70;100302.00;;;;5070226;28;20184;-42
2022/07/25 01:30:08;;;;;;;6.13;5.55;;;27.50;52.10;28.70;100299.00;;;;5069917;28;20181;-42
2022/07/25 01:32:35;;;;;;;6.05;5.55;;;27.40;52.00;28.60;100300.00;;;;5070537;28;20167;-42
2022/07/25 01:35:02;;;;;;;6.43;5.80;;;27.40;52.10;28.60;100303.00;;;;5070484;28;20545;-41
2022/07/25 01:37:28;;;;;;;6.00;5.50;;;27.50;52.60;28.60;100302.00;;;;5068288;28;20174;-41
2022/07/25 01:39:53;;;;;;;6.10;5.60;;;27.40;52.80;28.60;100302.00;;;;5070448;28;20185;-41
2022/07/25 01:42:19;;;;;;;6.18;5.68;;;27.40;53.00;28.60;100296.00;;;;5070255;28;20410;-40
2022/07/25 01:44:45;;;;;;;6.72;6.10;;;27.40;53.00;28.60;100296.00;;;;5070088;28;20162;-42
2022/07/25 01:47:10;;;;;;;6.30;5.80;;;27.40;53.50;28.50;100300.00;;;;5070176;28;20333;-42
2022/07/25 01:49:36;;;;;;;6.40;5.90;;;27.40;53.60;28.50;100291.00;;;;5070781;28;20263;-42
2022/07/25 01:52:02;;;;;;;5.70;5.20;;;27.40;53.60;28.50;100288.00;;;;5070198;28;20173;-42
2022/07/25 01:54:28;;;;;;;6.35;5.85;;;27.30;53.60;28.50;100287.00;;;;5070182;28;20242;-41
2022/07/25 01:56:53;;;;;;;6.45;5.85;;;27.30;53.30;28.50;100281.00;;;;5069794;28;20192;-42
2022/07/25 01:59:19;;;;;;;6.60;6.03;;;27.30;53.70;28.40;100281.00;;;;5069393;28;20197;-41
2022/07/25 02:01:45;;;;;;;6.10;5.60;;;27.20;53.50;28.40;100274.00;;;;5069791;28;20258;-42
2022/07/25 02:04:10;;;;;;;5.93;5.45;;;27.20;53.50;28.40;100277.00;;;;5069396;28;20165;-41
2022/07/25 02:06:36;;;;;;;6.40;5.90;;;27.20;53.30;28.30;100272.00;;;;5069313;28;20170;-41
2022/07/25 02:09:03;;;;;;;5.90;5.47;;;27.20;52.70;28.30;100275.00;;;;5071823;28;20213;-41
2022/07/25 02:11:28;;;;;;;6.43;5.93;;;27.10;52.60;28.30;100274.00;;;;5069312;28;20554;-41
2022/07/25 02:13:54;;;;;;;7.82;6.53;;;27.20;52.10;28.30;100269.00;;;;5069658;28;20180;-42
2022/07/25 02:16:20;;;;;;;6.30;5.80;;;27.20;52.40;28.20;100263.00;;;;5069811;28;20170;-42
2022/07/25 02:18:45;;;;;;;6.80;6.28;;;27.10;52.50;28.20;100266.00;;;;5069185;28;20692;-42
2022/07/25 02:21:11;;;;;;;6.90;6.30;;;27.10;52.80;28.20;100269.00;;;;5069786;28;20690;-41
2022/07/25 02:23:37;;;;;;;6.45;5.82;;;27.10;52.60;28.20;100258.00;;;;5079635;28;20638;-42
2022/07/25 02:26:04;;;;;;;6.20;5.60;;;27.10;52.70;28.20;100259.00;;;;5081367;28;20654;-40
2022/07/25 02:28:29;;;;;;;6.28;5.68;;;27.10;52.80;28.20;100261.00;;;;5079396;28;20207;-41
2022/07/25 02:30:55;;;;;;;6.40;5.90;;;27.10;52.90;28.20;100252.00;;;;5071140;28;20642;-40
2022/07/25 02:33:21;;;;;;;6.07;5.57;;;27.10;52.80;28.20;100242.00;;;;5069370;28;20181;-41
2022/07/25 02:35:47;;;;;;;6.97;6.22;;;27.10;53.00;28.20;100251.00;;;;5069204;28;20452;-40
2022/07/25 02:38:18;;;;;;;6.32;5.78;;;27.10;53.00;28.10;100246.00;;;;5069105;28;20177;-42
2022/07/25 02:40:51;;;;;;;6.25;5.75;;;27.10;53.20;28.10;100253.00;;;;5069324;28;20197;-42
2022/07/25 02:43:17;;;;;;;6.25;5.75;;;27.00;53.10;28.10;100243.00;;;;5069139;28;20177;-40
2022/07/25 02:45:43;;;;;;;6.22;5.70;;;27.00;53.30;28.10;100237.00;;;;5069127;28;20618;-42
2022/07/25 02:48:08;;;;;;;6.43;5.93;;;27.00;53.30;28.10;100249.00;;;;5068357;28;20170;-43
2022/07/25 02:50:34;;;;;;;6.22;5.72;;;27.00;53.60;28.10;100238.00;;;;5069091;28;20742;-40
2022/07/25 02:53:00;;;;;;;6.57;5.85;;;27.00;53.60;28.00;100234.00;;;;5068930;28;20247;-42
2022/07/25 02:55:26;;;;;;;6.05;5.55;;;27.00;53.70;28.00;100234.00;;;;5069044;28;20177;-42
2022/07/25 02:57:52;;;;;;;6.40;5.90;;;27.00;53.70;28.00;100221.00;;;;5068688;28;20177;-42
2022/07/25 03:00:18;;;;;;;6.57;6.07;;;27.00;53.50;28.00;100230.00;;;;5068628;28;20299;-41
2022/07/25 03:02:43;;;;;;;6.35;5.85;;;27.00;53.70;28.00;100229.00;;;;5068952;28;20626;-41
2022/07/25 03:05:11;;;;;;;6.65;6.03;;;26.90;54.00;28.00;100229.00;;;;5068936;28;20177;-40
2022/07/25 03:07:37;;;;;;;6.63;6.13;;;26.90;53.80;28.00;100224.00;;;;5068480;28;20176;-41
2022/07/25 03:10:04;;;;;;;6.75;6.15;;;26.90;53.90;28.00;100217.00;;;;5050869;28;20219;-42
2022/07/25 03:12:31;;;;;;;6.53;6.03;;;26.90;54.20;27.90;100227.00;;;;5068819;28;20180;-42
2022/07/25 03:14:58;;;;;;;6.32;5.75;;;26.90;54.10;27.90;100232.00;;;;5068690;28;20169;-42
2022/07/25 03:17:24;;;;;;;5.85;5.35;;;26.90;54.10;27.90;100210.00;;;;5068326;28;20224;-41
2022/07/25 03:19:49;;;;;;;6.72;5.90;;;26.90;54.10;27.90;100219.00;;;;5068374;28;20646;-40
2022/07/25 03:22:15;;;;;;;6.80;6.28;;;26.90;54.20;27.90;100214.00;;;;5068669;28;20236;-44
2022/07/25 03:24:41;;;;;;;6.50;6.00;;;26.80;54.10;27.90;100222.00;;;;5068740;28;20197;-42
2022/07/25 03:27:06;;;;;;;6.72;6.22;;;26.80;54.10;27.90;100210.00;;;;5068809;28;20192;-41
2022/07/25 03:29:32;;;;;;;6.45;5.95;;;26.80;53.80;27.80;100207.00;;;;5067137;28;20573;-42
2022/07/25 03:31:59;;;;;;;6.38;5.80;;;26.80;53.70;27.80;100210.00;;;;5069637;28;20174;-42
2022/07/25 03:34:25;;;;;;;6.57;5.97;;;26.80;54.10;27.80;100207.00;;;;5071632;28;20276;-42
2022/07/25 03:36:50;;;;;;;6.70;6.10;;;26.80;54.10;27.80;100199.00;;;;5085364;28;20214;-42
2022/07/25 03:39:17;;;;;;;8.48;6.05;;;26.70;54.20;27.70;100202.00;;;;5087496;28;20213;-42
2022/07/25 03:41:42;;;;;;;6.38;5.90;;;26.70;54.30;27.70;100197.00;;;;5090562;28;20185;-41
2022/07/25 03:44:08;;;;;;;6.40;5.80;;;26.60;54.40;27.70;100184.00;;;;5089464;28;20165;-41
2022/07/25 03:46:34;;;;;;;7.30;6.50;;;26.70;54.40;27.70;100180.00;;;;5088571;28;20177;-41
2022/07/25 03:49:00;;;;;;;6.60;6.00;;;26.70;54.20;27.60;100188.00;;;;5088110;28;20189;-40
2022/07/25 03:51:25;;;;;;;6.57;5.97;;;26.60;54.40;27.60;100179.00;;;;5088665;28;20486;-41
2022/07/25 03:54:00;;;;;;;6.68;6.07;;;26.60;54.00;27.60;100177.00;;;;5090490;28;20513;-41
2022/07/25 03:56:27;;;;;;;6.50;6.00;;;26.60;54.10;27.60;100169.00;;;;5092200;28;20173;-42
2022/07/25 03:58:52;;;;;;;6.50;6.00;;;26.50;54.20;27.50;100174.00;;;;5091860;28;20271;-41
2022/07/25 04:01:18;;;;;;;6.50;6.00;;;26.40;54.40;27.50;100169.00;;;;5091849;28;20725;-42
2022/07/25 04:03:45;;;;;;;6.38;5.82;;;26.40;54.20;27.50;100171.00;;;;5091891;28;20172;-42
2022/07/25 04:06:10;;;;;;;6.55;6.00;;;26.40;53.90;27.50;100172.00;;;;5091529;28;20169;-42
2022/07/25 04:08:36;;;;;;;6.47;5.88;;;26.40;54.10;27.40;100171.00;;;;5090282;28;20234;-42
2022/07/25 04:11:02;;;;;;;6.65;6.07;;;26.40;53.70;27.40;100163.00;;;;5091776;28;20176;-42
2022/07/25 04:13:28;;;;;;;6.60;6.10;;;26.30;53.70;27.40;100164.00;;;;5091376;28;20265;-40
2022/07/25 04:15:54;;;;;;;6.80;6.20;;;26.30;53.60;27.40;100158.00;;;;5091798;28;20204;-40
2022/07/25 04:18:20;;;;;;;6.85;6.20;;;26.40;53.30;27.40;100167.00;;;;5091404;28;20180;-43
2022/07/25 04:20:46;;;;;;;7.85;6.22;;;26.40;53.20;27.30;100163.00;;;;5091493;28;20184;-40
2022/07/25 04:23:12;;;;;;;6.38;5.88;;;26.40;53.40;27.30;100172.00;;;;5091344;28;20238;-42
2022/07/25 04:25:37;;;;;;;6.45;5.95;;;26.30;53.20;27.30;100161.00;;;;5091380;28;20238;-40
2022/07/25 04:28:03;;;;;;;6.28;5.78;;;26.40;52.60;27.30;100157.00;;;;5091152;28;20161;-40
2022/07/25 04:30:29;;;;;;;6.10;5.57;;;26.30;52.90;27.30;100152.00;;;;5091803;28;20197;-40
2022/07/25 04:32:55;;;;;;;6.10;5.50;;;26.30;52.70;27.30;100149.00;;;;5092013;28;20887;-41
2022/07/25 04:35:21;;;;;;;6.32;5.72;;;26.30;52.60;27.30;100149.00;;;;5091115;28;20551;-40
2022/07/25 04:37:47;;;;;;;6.80;5.57;;;26.30;52.70;27.30;100154.00;;;;5091361;28;20522;-39
2022/07/25 04:40:13;;;;;;;6.43;5.82;;;26.30;52.80;27.30;100143.00;;;;5091593;28;20688;-41
2022/07/25 04:42:38;;;;;;;6.35;5.85;;;26.30;52.90;27.30;100150.00;;;;5095406;28;20176;-41
2022/07/25 04:45:05;;;;;;;5.53;5.10;;;26.40;52.90;27.30;100147.00;;;;5095464;28;20169;-41
2022/07/25 04:47:30;;;;;;;8.73;5.85;;;26.40;52.80;27.20;100147.00;;;;5091924;28;20172;-41
2022/07/25 04:49:56;;;;;;;7.68;6.05;;;26.30;52.70;27.20;100149.00;;;;5091020;28;20258;-41
2022/07/25 04:52:22;;;;;;;6.65;6.13;;;26.30;52.90;27.20;100151.00;;;;5091124;28;20256;-43
2022/07/25 04:54:48;;;;;;;6.57;5.90;;;26.30;53.20;27.20;100143.00;;;;5091081;28;20177;-40
2022/07/25 04:57:13;;;;;;;6.68;6.07;;;26.30;53.40;27.20;100137.00;;;;5090926;28;20613;-40
2022/07/25 04:59:39;;;;;;;6.28;5.68;;;26.30;53.10;27.20;100140.00;;;;5091322;28;20274;-40
2022/07/25 05:02:05;;;;;;;6.00;5.50;;;26.30;53.40;27.20;100141.00;;;;5016459;28;20194;-41
2022/07/25 05:04:31;;;;;;;5.85;5.32;;;26.20;53.40;27.20;100130.00;;;;5087600;28;20169;-42
2022/07/25 05:06:56;;;;;;;6.72;6.05;;;26.30;53.10;27.20;100137.00;;;;5090965;28;20196;-41
2022/07/25 05:09:22;;;;;;;5.93;5.50;;;26.20;53.40;27.20;100131.00;;;;5089784;28;20189;-40
2022/07/25 05:11:48;;;;;;;6.68;6.10;;;26.20;53.40;27.20;100128.00;;;;5091017;28;20261;-40
2022/07/25 05:14:14;;;;;;;6.25;5.60;;;26.20;53.50;27.20;100106.00;;;;5090109;28;20606;-41
2022/07/25 05:16:39;;;;;;;6.03;5.55;;;26.20;53.50;27.10;100127.00;;;;5089703;28;20177;-41
2022/07/25 05:19:05;;;;;;;6.70;6.10;;;26.30;53.90;27.10;100129.00;;;;5090359;28;20185;-40
2022/07/25 05:21:31;;;;;;;6.50;5.93;;;26.30;53.70;27.10;100127.00;;;;5090798;28;20265;-41
2022/07/25 05:23:57;;;;;;;6.18;5.68;;;26.30;53.40;27.20;100128.00;;;;5090071;28;20172;-40
2022/07/25 05:26:23;;;;;;;6.00;5.50;;;26.30;53.60;27.20;100123.00;;;;5090303;28;20173;-41
2022/07/25 05:28:48;;;;;;;6.32;5.78;;;26.30;53.30;27.20;100117.00;;;;5090265;28;20219;-41
2022/07/25 05:31:14;;;;;;;5.78;5.28;;;26.30;53.30;27.10;100118.00;;;;5090506;28;20541;-40
2022/07/25 05:33:41;;;;;;;6.60;5.82;;;26.30;53.40;27.20;100116.00;;;;5089836;28;20629;-40
2022/07/25 05:36:07;;;;;;;6.32;5.72;;;26.30;53.40;27.10;100116.00;;;;5090224;28;20255;-41
2022/07/25 05:38:33;;;;;;;5.88;5.38;;;26.30;53.80;27.10;100115.00;;;;5090350;28;20221;-41
2022/07/25 05:40:59;;;;;;;5.82;5.28;;;26.30;53.90;27.10;100115.00;;;;5090188;28;20829;-41
2022/07/25 05:43:25;;;;;;;6.53;6.03;;;26.30;54.10;27.10;100116.00;;;;5090012;28;20165;-40
2022/07/25 05:45:51;;;;;;;5.90;5.50;;;26.30;53.60;27.10;100118.00;;;;5089805;28;20253;-40
2022/07/25 05:48:16;;;;;;;5.70;5.30;;;26.20;53.20;27.10;100107.00;;;;5089542;28;20173;-41
2022/07/25 05:50:42;;;;;;;5.70;5.20;;;26.20;53.40;27.10;100100.00;;;;5096486;28;20204;-40
2022/07/25 05:53:08;;;;;;;5.82;5.35;;;26.20;53.50;27.10;100096.00;;;;5095010;28;20664;-41
2022/07/25 05:55:34;;;;;;;6.10;5.50;;;26.20;53.20;27.10;100101.00;;;;5090404;28;20169;-41
2022/07/25 05:57:59;;;;;;;6.00;5.50;;;26.20;53.00;27.10;100103.00;;;;5089661;28;20246;-41
2022/07/25 06:00:25;;;;;;;6.07;5.57;;;26.20;53.00;27.10;100107.00;;;;5089882;28;20200;-41
2022/07/25 06:02:51;;;;;;;6.57;5.60;;;26.20;52.80;27.00;100105.00;;;;5089827;28;20172;-40
2022/07/25 06:05:17;;;;;;;5.78;5.38;;;26.20;52.80;27.00;100105.00;;;;5089093;28;20191;-42
2022/07/25 06:07:43;;;;;;;6.00;5.50;;;26.20;52.80;27.00;100098.00;;;;5089414;28;20203;-41
2022/07/25 06:10:09;;;;;;;5.60;5.20;;;26.20;52.80;27.00;100099.00;;;;5089900;28;20222;-42
2022/07/25 06:12:34;;;;;;;5.65;5.25;;;26.20;52.80;27.00;100097.00;;;;5090020;28;20245;-41
2022/07/25 06:15:00;;;;;;;5.90;5.50;;;26.20;52.80;27.00;100096.00;;;;5089101;28;20240;-41
2022/07/25 06:17:26;;;;;;;6.10;5.50;;;26.20;52.80;27.00;100088.00;;;;5089097;28;20306;-41
2022/07/25 06:19:51;;;;;;;5.57;5.18;;;26.20;52.60;27.00;100084.00;;;;5089482;28;20212;-41
2022/07/25 06:22:20;;;;;;;5.65;5.25;;;26.20;52.80;27.00;100083.00;;;;5089369;28;20567;-41
2022/07/25 06:24:46;;;;;;;6.25;5.75;;;26.20;52.70;26.90;100085.00;;;;5089197;28;20169;-41
2022/07/25 06:27:12;;;;;;;5.93;5.43;;;26.20;52.70;26.90;100088.00;;;;5089045;28;20153;-42
2022/07/25 06:29:37;;;;;;;5.75;4.95;;;26.20;52.60;26.90;100090.00;;;;5089161;28;20196;-41
2022/07/25 06:32:03;;;;;;;6.20;5.78;;;26.20;52.70;26.90;100093.00;;;;5101108;28;20191;-41
2022/07/25 06:34:29;;;;;;;5.90;5.40;;;26.20;52.80;26.90;100079.00;;;;5102289;28;20411;-41
2022/07/25 06:36:56;;;;;;;6.38;5.78;;;26.20;52.80;26.90;100092.00;;;;5101988;28;20191;-41
2022/07/25 06:39:22;;;;;;;6.18;5.60;;;26.10;52.80;26.90;100085.00;;;;5091338;28;20193;-41
2022/07/25 06:41:48;;;;;;;6.00;5.50;;;26.20;53.10;26.90;100085.00;;;;5089603;28;20208;-41
2022/07/25 06:44:14;;;;;;;6.10;5.50;;;26.20;53.00;26.90;100085.00;;;;5094091;28;20174;-40
2022/07/25 06:46:40;;;;;;;6.00;5.50;;;26.20;53.20;26.80;100085.00;;;;5096044;28;20720;-41
2022/07/25 06:49:05;;;;;;;6.30;5.70;;;26.10;53.10;26.80;100086.00;;;;5088621;28;20188;-41
2022/07/25 06:51:31;;;;;;;6.05;5.55;;;26.10;53.20;26.80;100085.00;;;;5088166;28;20543;-41
2022/07/25 06:53:57;;;;;;;6.00;5.50;;;26.10;53.30;26.80;100083.00;;;;5088690;28;20173;-40
2022/07/25 06:56:23;;;;;;;5.90;5.40;;;26.10;53.40;26.80;100091.00;;;;5088792;28;20695;-43
2022/07/25 06:58:49;;;;;;;6.75;6.10;;;26.10;53.50;26.80;100096.00;;;;5088974;28;20192;-41
2022/07/25 07:01:15;;;;;;;6.25;5.70;;;26.10;53.70;26.80;100095.00;;;;5086464;28;20185;-40
2022/07/25 07:03:41;;;;;;;6.43;5.93;;;26.10;53.70;26.80;100097.00;;;;5088548;28;20229;-40
2022/07/25 07:06:08;;;;;;;6.30;5.70;;;26.10;53.80;26.80;100092.00;;;;5087803;28;20161;-41
2022/07/25 07:08:34;;;;;;;6.70;6.10;;;26.10;53.70;26.90;100066.00;;;;5086819;28;20834;-42
2022/07/25 07:11:00;;;;;;;6.25;5.75;;;26.10;53.50;26.80;100064.00;;;;5033236;28;20187;-41
2022/07/25 07:13:26;;;;;;;5.63;5.20;;;26.10;53.50;26.80;100073.00;;;;5078448;28;20259;-41
2022/07/25 07:15:51;;;;;;;6.28;5.70;;;26.10;53.70;26.80;100078.00;;;;5087639;28;20204;-42
2022/07/25 07:18:18;;;;;;;6.72;6.22;;;26.10;53.90;26.90;100087.00;;;;5087717;28;20978;-41
2022/07/25 07:20:44;;;;;;;6.07;5.57;;;26.20;54.00;26.80;100083.00;;;;5088357;28;20251;-42
2022/07/25 07:23:10;;;;;;;6.38;5.78;;;26.20;54.00;26.80;100077.00;;;;5088711;28;20797;-41
2022/07/25 07:25:36;;;;;;;6.60;6.10;;;26.10;54.10;26.80;100066.00;;;;5088694;28;20180;-41
2022/07/25 07:28:02;;;;;;;6.47;5.90;;;26.10;54.20;26.80;100054.00;;;;5090076;28;20191;-41
2022/07/25 07:30:27;;;;;;;6.57;5.97;;;26.10;54.10;26.80;100064.00;;;;5093420;28;20213;-42
2022/07/25 07:32:53;;;;;;;6.35;5.88;;;26.20;54.30;26.90;100060.00;;;;5108465;28;20546;-40
2022/07/25 07:35:19;;;;;;;6.53;5.93;;;26.10;54.40;26.90;100059.00;;;;5113604;28;20156;-40
2022/07/25 07:37:45;;;;;;;6.78;6.07;;;26.20;54.40;26.90;100055.00;;;;5113265;28;20176;-39
2022/07/25 07:40:14;;;;;;;6.63;6.03;;;26.20;54.80;26.90;100061.00;;;;5114699;28;20539;-40
2022/07/25 07:42:41;;;;;;;6.82;6.18;;;26.20;55.10;27.00;100056.00;;;;5113796;28;20519;-42
2022/07/25 07:45:12;;;;;;;6.93;6.32;;;26.20;55.00;27.00;100055.00;;;;5113181;28;20329;-41
2022/07/25 07:47:38;;;;;;;6.60;6.10;;;26.30;55.10;27.00;100055.00;;;;5113148;27;20168;-40
2022/07/25 07:50:04;;;;;;;6.75;6.25;;;26.30;55.10;27.00;100048.00;;;;5112884;28;20188;-42
2022/07/25 07:52:30;;;;;;;8.13;6.45;;;26.30;55.10;27.00;100047.00;;;;5111860;28;20227;-41
2022/07/25 07:57:40;;;;;;;6.65;6.10;;;26.30;55.10;27.00;100048.00;;;;5112491;28;20551;-41
2022/07/25 08:00:06;;;;;;;6.78;6.15;;;26.30;55.10;27.00;100052.00;;;;5112213;28;20191;-42
2022/07/25 08:02:32;;;;;;;7.18;6.47;;;26.40;55.10;27.10;100047.00;;;;5112421;28;20290;-42
2022/07/25 08:04:58;;;;;;;6.88;6.22;;;26.40;55.10;27.10;100055.00;;;;5110456;28;20704;-42
2022/07/25 08:07:24;;;;;;;7.00;6.38;;;26.40;55.10;27.10;100057.00;;;;5091541;28;20193;-41
2022/07/25 08:09:49;;;;;;;7.22;6.60;;;26.40;55.10;27.10;99989.00;;;;5091529;28;20214;-42
2022/07/25 08:12:15;;;;;;;7.65;6.60;;;26.50;55.20;27.20;100064.00;;;;4968892;28;20264;-42
2022/07/25 08:14:41;;;;;;;6.85;6.25;;;26.50;55.40;27.20;100066.00;;;;5117663;28;20187;-42
2022/07/25 08:17:06;;;;;;;7.13;6.50;;;26.60;55.30;27.20;100057.00;;;;5115856;28;20173;-42
2022/07/25 08:19:33;;;;;;;7.63;6.90;;;26.60;55.90;27.20;100061.00;;;;5112253;28;20272;-42
2022/07/25 08:21:59;;;;;;;7.78;6.35;;;26.60;55.50;27.20;100062.00;;;;5112036;28;20207;-42
2022/07/25 08:24:24;;;;;;;7.18;6.47;;;26.60;55.50;27.30;100054.00;;;;5111898;28;20165;-42
2022/07/25 08:26:50;;;;;;;7.40;6.80;;;26.60;55.50;27.30;100050.00;;;;5111922;28;20535;-41
2022/07/25 08:29:16;;;;;;;8.35;6.57;;;26.70;55.40;27.30;100047.00;;;;5112188;28;20188;-42
2022/07/25 08:31:42;;;;;;;8.40;6.35;;;26.70;55.30;27.40;100066.00;;;;5111903;28;20168;-42
2022/07/25 08:34:07;;;;;;;7.93;6.60;;;26.70;55.30;27.40;100067.00;;;;5111062;28;20721;-42
2022/07/25 08:36:33;;;;;;;7.70;7.00;;;26.80;55.40;27.40;100061.00;;;;5111300;28;20168;-41
2022/07/25 08:38:59;;;;;;;7.68;6.30;;;26.80;55.40;27.40;100066.00;;;;5110341;28;20253;-42
2022/07/25 08:41:25;;;;;;;7.13;6.53;;;26.80;54.30;27.40;100046.00;;;;5111239;28;20204;-42
2022/07/25 08:43:50;;;;;;;6.93;6.32;;;26.80;53.70;27.50;100066.00;;;;5093152;28;20532;-41
2022/07/25 08:46:16;;;;;;;7.60;6.80;;;26.80;53.60;27.50;100074.00;;;;5093053;28;20581;-41
2022/07/25 08:48:43;;;;;;;7.18;6.47;;;26.90;53.80;27.50;100076.00;;;;5110416;28;20713;-42
2022/07/25 08:51:09;;;;;;;6.90;6.20;;;26.90;53.90;27.50;100053.00;;;;5110740;28;20229;-41
2022/07/25 08:53:34;;;;;;;7.07;6.18;;;26.90;53.80;27.50;100069.00;;;;5092943;28;20181;-42
2022/07/25 08:56:02;;;;;;;6.85;6.22;;;26.90;53.20;27.50;100068.00;;;;5110133;28;20241;-40
2022/07/25 08:58:28;;;;;;;6.55;5.97;;;26.80;53.00;27.50;100073.00;;;;5111345;28;20638;-40
2022/07/25 09:00:56;;;;;;;6.80;6.20;;;26.80;53.20;27.50;100043.00;;;;5111720;28;20242;-42
2022/07/25 09:03:22;;;;;;;6.97;6.20;;;26.90;53.30;27.60;100076.00;;;;5110019;28;20196;-42
2022/07/25 09:05:48;;;;;;;7.10;6.38;;;26.90;53.50;27.60;100079.00;;;;5103977;28;20811;-42
2022/07/25 09:08:16;;;;;;;7.47;6.70;;;26.90;53.70;27.60;100081.00;;;;5090072;28;20650;-42
2022/07/25 09:10:49;;;;;;;7.32;6.60;;;26.90;53.50;27.40;100045.00;;;;5039099;28;20237;-41
2022/07/25 09:13:16;;;;;;;6.80;6.15;;;26.90;53.30;27.60;100070.00;;;;5034914;28;20164;-42
2022/07/25 09:15:55;;;;;;;6.97;6.30;;;26.90;53.50;27.60;100080.00;;;;5109904;28;20164;-42
2022/07/25 09:18:26;;;;;;;6.57;5.97;;;26.90;53.30;27.60;100073.00;;;;5110932;28;20723;-40
2022/07/25 09:20:54;;;;;;;6.72;5.80;;;27.00;53.40;27.70;100059.00;;;;5092704;28;20691;-41
2022/07/25 09:23:35;;;;;;;6.38;5.88;;;27.00;53.30;27.70;100064.00;;;;5110980;28;20179;-42
2022/07/25 09:26:09;;;;;;;6.47;5.88;;;27.00;52.90;27.70;100067.00;;;;5110498;28;20180;-42
2022/07/25 09:28:48;;;;;;;6.82;6.20;;;27.10;53.20;27.70;100067.00;;;;5110553;28;20661;-40
2022/07/25 09:31:14;;;;;;;7.97;6.30;;;27.10;52.80;27.70;100053.00;;;;5110752;28;20176;-41
2022/07/25 09:34:08;;;;;;;8.02;6.55;;;27.10;52.60;27.80;100081.00;;;;5110696;28;20539;-42
2022/07/25 09:36:34;;;;;;;7.65;6.40;;;27.10;52.80;27.80;100080.00;;;;5109291;28;20184;-41
2022/07/25 09:39:00;;;;;;;6.55;5.95;;;27.20;52.90;27.80;100081.00;;;;5110192;28;20186;-42
2022/07/25 09:41:39;;;;;;;6.72;6.13;;;27.20;52.80;27.90;100087.00;;;;5110421;28;20620;-41
2022/07/25 09:44:18;;;;;;;6.80;6.20;;;27.20;52.90;27.90;100089.00;;;;5110825;28;20160;-42
2022/07/25 09:46:44;;;;;;;6.47;5.88;;;27.30;53.00;27.90;100084.00;;;;5092574;28;20168;-42
2022/07/25 09:49:13;;;;;;;7.10;6.43;;;27.30;53.10;27.90;100097.00;;;;5110323;28;20248;-39
2022/07/25 09:51:39;;;;;;;7.00;6.30;;;27.20;53.00;27.90;100102.00;;;;5109800;28;20176;-41
2022/07/25 09:54:05;;;;;;;8.68;6.03;;;27.20;53.00;27.90;100103.00;;;;5110280;28;20504;-41
2022/07/25 09:56:34;;;;;;;6.63;6.00;;;27.20;53.10;27.90;100118.00;;;;5110300;28;20172;-41
2022/07/25 09:59:00;;;;;;;7.15;6.30;;;27.10;53.80;27.90;100123.00;;;;5109847;28;20674;-41
2022/07/25 10:01:35;;;;;;;6.97;6.15;;;27.10;52.90;27.90;100125.00;;;;5109580;28;20236;-41
2022/07/25 10:04:46;;;;;;;6.45;5.70;;;27.00;53.00;27.90;100131.00;;;;5093359;28;20634;-43
2022/07/25 10:07:14;;;;;;;6.78;6.22;;;26.90;53.30;27.90;100137.00;;;;5060875;28;20530;-40
2022/07/25 10:09:50;;;;;;;7.00;6.30;;;26.90;53.30;27.90;100149.00;;;;5089559;28;20680;-41
2022/07/25 10:12:21;;;;;;;6.53;6.03;;;26.90;53.30;27.80;100146.00;;;;4918111;28;20183;-42
2022/07/25 10:15:11;;;;;;;6.88;5.93;;;26.80;53.30;27.80;100147.00;;;;5109586;28;20172;-42
2022/07/25 10:17:37;;;;;;;8.05;6.00;;;26.80;53.40;27.80;100157.00;;;;5109713;28;20258;-42
2022/07/25 10:20:05;;;;;;;6.70;5.78;;;26.80;53.50;27.80;100176.00;;;;5109635;28;20192;-42
2022/07/25 10:22:39;;;;;;;6.93;6.22;;;26.80;53.90;27.80;100164.00;;;;5081788;28;20285;-43
2022/07/25 10:25:18;;;;;;;7.40;6.00;;;26.80;54.00;27.80;100165.00;;;;5074723;28;20182;-41
2022/07/25 10:27:49;;;;;;;6.28;5.78;;;26.80;54.20;27.80;100150.00;;;;5077495;28;20191;-41
2022/07/25 10:30:23;;;;;;;6.50;5.90;;;26.80;54.40;27.80;100142.00;;;;5069637;28;20209;-41
2022/07/25 10:33:00;;;;;;;6.18;5.68;;;26.80;54.80;27.80;100138.00;;;;5069304;28;20717;-40
2022/07/25 10:35:26;;;;;;;6.47;5.68;;;26.80;54.70;27.80;100146.00;;;;5068689;28;20188;-42
2022/07/25 10:37:54;;;;;;;7.18;6.32;;;26.90;54.90;27.80;100120.00;;;;5068836;28;20177;-42
2022/07/25 10:40:33;;;;;;;7.00;6.13;;;26.90;54.90;27.90;100108.00;;;;5071352;28;20237;-42
2022/07/25 10:43:11;;;;;;;7.28;6.30;;;26.90;55.00;27.90;100111.00;;;;5070872;28;20162;-41
2022/07/25 10:45:41;;;;;;;6.57;5.97;;;27.00;55.10;27.90;100121.00;;;;5069040;28;20169;-42
2022/07/25 10:48:22;;;;;;;8.32;6.40;;;27.00;55.20;27.90;100121.00;;;;5068204;28;20168;-42
2022/07/25 10:51:09;;;;;;;6.72;6.13;;;27.00;55.10;27.90;100122.00;;;;5069221;28;20227;-41